Time;durP1;ratioP1;P1;durP2;ratioP2;P2;SDS_P1;SDS_P2;PMS_P1;PMS_P2;Temp;Humidity;BMP_temperature;BMP_pressure;BME280_temperature;BME280_humidity;BME280_pressure;Samples;Min_cycle;Max_cycle;Signal;HPM_P1;HPM_P2
2023/01/26 00:04:55;;;;;;;99.87;31.97;;;;;;;-1.05;100.00;102418.13;10496067;28;20052;-79
2023/01/26 00:09:55;;;;;;;110.47;31.43;;;;;;;-1.06;100.00;102419.09;10466175;28;20044;-78
2023/01/26 00:14:56;;;;;;;110.50;34.27;;;;;;;-1.04;100.00;102412.56;10455307;28;20049;-78
2023/01/26 00:19:56;;;;;;;102.23;33.20;;;;;;;-1.11;100.00;102394.34;10494949;28;20036;-79
2023/01/26 00:24:57;;;;;;;110.20;32.97;;;;;;;-1.08;100.00;102402.16;10478817;28;20047;-79
2023/01/26 00:29:57;;;;;;;98.50;30.33;;;;;;;-1.08;100.00;102397.63;10479049;28;20044;-79
2023/01/26 00:34:58;;;;;;;109.15;30.77;;;;;;;-1.08;100.00;102405.72;10458000;28;20045;-79
2023/01/26 00:39:58;;;;;;;96.47;29.77;;;;;;;-1.12;100.00;102387.22;10464750;28;20033;-79
2023/01/26 00:44:59;;;;;;;102.88;30.25;;;;;;;-1.12;100.00;102388.06;10471420;28;20056;-78
2023/01/26 00:49:59;;;;;;;104.43;32.53;;;;;;;-1.08;100.00;102394.06;10499585;28;20052;-79
2023/01/26 00:55:00;;;;;;;108.23;30.30;;;;;;;-1.08;100.00;102385.97;10502599;28;20044;-78
2023/01/26 01:00:00;;;;;;;108.60;30.27;;;;;;;-1.16;100.00;102364.19;10468839;28;20033;-79
2023/01/26 01:05:01;;;;;;;104.53;30.00;;;;;;;-1.04;100.00;102384.69;10487457;28;20108;-81
2023/01/26 01:10:01;;;;;;;101.60;30.20;;;;;;;-1.08;100.00;102376.00;10450212;28;20033;-82
2023/01/26 01:15:02;;;;;;;107.30;29.70;;;;;;;-1.10;100.00;102375.28;10503054;28;20445;-83
2023/01/26 01:20:04;;;;;;;102.95;28.88;;;;;;;-1.08;100.00;102367.88;10497680;28;20041;-84
2023/01/26 01:25:05;;;;;;;98.10;29.60;;;;;;;-1.05;100.00;102373.03;10467629;28;20040;-83
2023/01/26 01:30:06;;;;;;;85.67;27.77;;;;;;;-0.99;100.00;102373.44;10502720;28;20036;-82
2023/01/26 01:35:07;;;;;;;101.45;29.08;;;;;;;-0.97;100.00;102376.84;10481700;28;20082;-82
2023/01/26 01:40:11;;;;;;;85.23;26.70;;;;;;;-1.02;100.00;102364.63;10488071;28;20470;-83
2023/01/26 01:45:44;;;;;;;81.90;28.57;;;;;;;-0.94;100.00;102372.03;10482711;28;20037;-80
2023/01/26 01:50:44;;;;;;;81.63;26.03;;;;;;;-1.32;100.00;102305.31;10495493;28;20033;-80
2023/01/26 01:55:45;;;;;;;79.47;25.30;;;;;;;-0.86;100.00;102376.72;10482741;28;20028;-80
2023/01/26 02:00:45;;;;;;;83.97;24.40;;;;;;;-0.86;100.00;102374.03;10496253;28;20037;-80
2023/01/26 02:06:01;;;;;;;86.37;25.27;;;;;;;-0.88;100.00;102379.56;10460252;28;20025;-79
2023/01/26 02:11:08;;;;;;;73.37;23.97;;;;;;;-1.04;100.00;102358.50;10462222;28;20056;-79
2023/01/26 02:16:08;;;;;;;75.18;22.25;;;;;;;-0.86;100.00;102374.03;10480424;28;20286;-80
2023/01/26 02:21:10;;;;;;;68.87;21.93;;;;;;;-0.84;100.00;102374.75;10499198;28;20064;-79
2023/01/26 02:26:15;;;;;;;65.57;21.07;;;;;;;-0.99;100.00;102341.88;10481859;28;20420;-79
2023/01/26 02:31:15;;;;;;;65.93;22.20;;;;;;;-0.91;100.00;102363.66;10482203;28;20092;-77
2023/01/26 02:36:21;;;;;;;70.97;24.97;;;;;;;-0.82;100.00;102367.34;10498832;28;20048;-80
2023/01/26 02:46:40;;;;;;;68.33;21.97;;;;;;;-0.79;100.00;102367.03;10492521;28;20044;-80
2023/01/26 02:51:40;;;;;;;74.03;24.80;;;;;;;-0.79;100.00;102367.03;10499674;28;20048;-79
2023/01/26 02:56:41;;;;;;;69.17;21.87;;;;;;;-0.77;100.00;102370.44;10498160;28;20032;-80
2023/01/26 03:01:41;;;;;;;68.60;20.63;;;;;;;-0.74;100.00;102380.16;10499210;28;20040;-79
2023/01/26 03:06:42;;;;;;;63.30;21.00;;;;;;;-0.79;100.00;102366.19;10480971;28;20039;-79
2023/01/26 03:11:42;;;;;;;69.27;21.67;;;;;;;-0.72;100.00;102370.91;10498539;28;20071;-79
2023/01/26 03:16:43;;;;;;;71.80;20.10;;;;;;;-0.71;100.00;102375.28;10496376;28;20044;-79
2023/01/26 03:32:24;;;;;;;65.40;20.85;;;;;;;-0.65;100.00;102358.50;10455913;28;20048;-78
2023/01/26 03:37:24;;;;;;;64.37;21.97;;;;;;;-0.65;100.00;102353.09;10473876;28;20037;-78
2023/01/26 03:58:33;;;;;;;73.13;21.43;;;;;;;-0.59;100.00;102348.09;10495788;28;20041;-79
2023/01/26 04:08:53;;;;;;;82.03;24.63;;;;;;;-0.59;100.00;102342.69;10497769;28;20033;-78
2023/01/26 04:24:32;;;;;;;61.60;20.53;;;;;;;-0.63;100.00;102324.03;10502636;28;20413;-78
2023/01/26 04:29:32;;;;;;;63.07;20.33;;;;;;;-0.63;100.00;102317.78;10503849;28;20049;-78
2023/01/26 04:34:32;;;;;;;71.97;20.80;;;;;;;-0.56;100.00;102331.56;10503713;28;20052;-78
2023/01/26 04:39:33;;;;;;;65.90;21.73;;;;;;;-0.50;100.00;102339.09;10489847;28;20044;-76
2023/01/26 04:44:33;;;;;;;74.97;22.20;;;;;;;-0.52;100.00;102338.41;10463025;28;20511;-77
2023/01/26 04:49:34;;;;;;;70.53;21.87;;;;;;;-0.49;100.00;102330.00;10486678;28;20047;-78
2023/01/26 04:54:34;;;;;;;82.33;22.20;;;;;;;-0.49;100.00;102321.88;10469779;28;20091;-77
2023/01/26 04:59:35;;;;;;;79.95;21.45;;;;;;;-0.48;100.00;102319.00;10500056;28;20040;-76
2023/01/26 05:09:48;;;;;;;74.17;23.37;;;;;;;-1.04;100.00;102255.78;11102459;22;20061;-89
2023/01/26 05:15:07;;;;;;;82.47;21.80;;;;;;;-0.41;100.00;102312.03;8132916;22;20212;-87
2023/01/26 05:20:08;;;;;;;66.03;21.03;;;;;;;-1.59;100.00;102125.88;10368412;28;20076;-90
2023/01/26 05:25:09;;;;;;;68.07;20.83;;;;;;;-0.79;100.00;102247.22;10336840;28;20042;-90
2023/01/26 05:30:10;;;;;;;72.57;21.47;;;;;;;-1.02;100.00;102236.72;10336910;28;20121;-90
2023/01/26 05:35:11;;;;;;;77.50;22.33;;;;;;;-0.30;100.00;102367.84;10337725;28;20126;-90
2023/01/26 05:40:11;;;;;;;74.10;21.37;;;;;;;-1.16;100.00;102186.66;10337030;28;20101;-90
2023/01/26 05:45:12;;;;;;;82.43;22.93;;;;;;;-0.87;100.00;102234.41;10337186;28;20034;-90
2023/01/26 05:50:13;;;;;;;68.50;20.90;;;;;;;-1.55;100.00;102127.31;10336341;28;20117;-89
2023/01/26 05:55:13;;;;;;;65.00;19.20;;;;;;;-1.70;100.00;102112.53;10343772;28;20067;-89
2023/01/26 06:00:14;;;;;;;72.20;19.47;;;;;;;-1.11;100.00;102213.28;10334508;28;20022;-89
2023/01/26 06:05:15;;;;;;;64.20;20.47;;;;;;;-0.66;100.00;102286.47;10334371;28;20038;-90
2023/01/26 06:10:15;;;;;;;66.93;22.00;;;;;;;-0.46;100.00;102311.59;10333787;28;20052;-90
2023/01/26 06:15:16;;;;;;;75.17;19.97;;;;;;;-1.07;100.00;102247.13;10331939;28;20026;-90
2023/01/26 06:20:17;;;;;;;65.77;20.60;;;;;;;-1.47;100.00;102140.06;10332977;28;20049;-90
2023/01/26 06:25:17;;;;;;;78.20;21.03;;;;;;;-1.24;100.00;102178.44;10333059;28;20030;-90
2023/01/26 06:30:18;;;;;;;65.27;20.27;;;;;;;-1.37;100.00;102161.69;10334630;28;20099;-90
2023/01/26 06:35:18;;;;;;;75.93;21.93;;;;;;;-0.61;100.00;102292.28;10333919;28;20036;-90
2023/01/26 06:40:19;;;;;;;72.20;21.10;;;;;;;-0.76;100.00;102269.41;10333474;28;20089;-90
2023/01/26 06:45:19;;;;;;;72.27;19.13;;;;;;;-1.16;100.00;102213.69;10333440;28;20457;-90
2023/01/26 06:50:22;;;;;;;71.80;20.17;;;;;;;-0.58;100.00;102290.28;10333431;28;20101;-90
2023/01/26 06:55:50;;;;;;;74.80;22.20;;;;;;;-0.43;100.00;102307.78;10331557;28;20088;-89
2023/01/26 07:00:51;;;;;;;61.47;19.13;;;;;;;-1.39;100.00;102169.06;10346842;28;20038;-90
2023/01/26 07:05:51;;;;;;;69.27;21.43;;;;;;;-1.58;100.00;102141.09;10333223;28;20091;-90
2023/01/26 07:10:52;;;;;;;64.18;20.35;;;;;;;-1.49;100.00;102196.09;10327821;28;20105;-89
2023/01/26 07:16:00;;;;;;;76.77;23.67;;;;;;;-1.57;100.00;102164.41;10324197;28;20049;-90
2023/01/26 07:21:01;;;;;;;68.72;18.98;;;;;;;-0.69;100.00;102302.97;10324838;28;20032;-90
2023/01/26 07:26:02;;;;;;;68.67;19.73;;;;;;;-1.52;100.00;102164.81;10324917;28;20036;-90
2023/01/26 07:31:03;;;;;;;77.17;20.17;;;;;;;-1.40;100.00;102205.19;10326069;28;20038;-90
2023/01/26 07:36:04;;;;;;;88.93;22.70;;;;;;;-0.94;100.00;102298.19;10324896;28;20112;-90
2023/01/26 07:41:08;;;;;;;85.87;21.33;;;;;;;-1.23;100.00;102261.22;10324262;28;20026;-90
2023/01/26 07:46:11;;;;;;;66.20;20.20;;;;;;;-0.51;100.00;102354.50;10325935;28;20091;-91
2023/01/26 07:51:12;;;;;;;79.30;20.83;;;;;;;-1.26;100.00;102215.53;10331629;28;20050;-90
2023/01/26 07:56:14;;;;;;;88.28;21.20;;;;;;;-1.50;100.00;102157.44;10349184;28;20038;-90
2023/01/26 08:01:15;;;;;;;59.00;18.97;;;;;;;-0.22;100.00;102359.84;10333746;28;20107;-89
2023/01/26 08:06:17;;;;;;;79.40;19.70;;;;;;;-1.14;100.00;102243.28;10332480;28;20080;-90
2023/01/26 08:11:21;;;;;;;71.30;16.53;;;;;;;0.12;100.00;102458.63;10331940;28;20045;-90
2023/01/26 08:16:22;;;;;;;90.30;17.90;;;;;;;-0.73;100.00;102290.75;10330514;28;20061;-89
2023/01/26 08:21:22;;;;;;;61.10;13.27;;;;;;;-0.95;100.00;102220.78;10314702;28;20050;-90
2023/01/26 08:26:23;;;;;;;63.80;11.57;;;;;;;-0.25;100.00;102283.50;10305213;28;20035;-90
2023/01/26 08:31:24;;;;;;;59.07;11.17;;;;;;;0.25;100.00;102275.00;10290444;28;20111;-89
2023/01/26 08:36:24;;;;;;;52.85;10.02;;;;;;;1.13;100.00;102401.78;10290354;28;20031;-90
2023/01/26 08:41:25;;;;;;;61.90;10.77;;;;;;;1.11;100.00;102384.81;10297561;28;20386;-90
2023/01/26 08:46:25;;;;;;;62.85;9.20;;;;;;;0.76;100.00;102348.53;10305994;28;20061;-90
2023/01/26 08:51:26;;;;;;;57.72;8.73;;;;;;;1.02;100.00;102332.34;10296959;28;20481;-89
2023/01/26 08:56:26;;;;;;;48.75;9.80;;;;;;;0.39;100.00;102232.97;10288872;28;20360;-89
2023/01/26 09:01:27;;;;;;;58.88;8.20;;;;;;;0.82;100.00;102282.84;10295471;28;20450;-89
2023/01/26 09:06:29;;;;;;;65.00;11.05;;;;;;;0.56;100.00;102224.00;10289154;28;20046;-90
2023/01/26 09:11:30;;;;;;;63.40;9.20;;;;;;;1.30;100.00;102337.66;10305176;28;20053;-89
2023/01/26 09:16:31;;;;;;;69.80;11.35;;;;;;;1.52;100.00;102339.88;10288868;28;20038;-87
2023/01/26 09:21:31;;;;;;;56.00;10.35;;;;;;;2.38;100.00;102483.06;10295746;28;20037;-89
2023/01/26 09:26:32;;;;;;;53.55;9.98;;;;;;;1.44;100.00;102268.41;10320725;28;20140;-90
2023/01/26 09:31:32;;;;;;;44.25;8.50;;;;;;;1.95;100.00;102383.44;10345480;28;20073;-90
2023/01/26 09:36:33;;;;;;;54.85;9.77;;;;;;;1.57;100.00;102260.66;10319220;28;20483;-91
2023/01/26 09:41:50;;;;;;;49.67;10.23;;;;;;;2.70;100.00;102442.59;10327764;28;20461;-89
2023/01/26 09:47:05;;;;;;;;;;;;;;;3.08;100.00;102456.66;10343950;28;20050;-90
2023/01/26 09:52:19;;;;;;;43.25;7.93;;;;;;;1.56;100.00;102183.81;10343423;28;20067;-90
2023/01/26 09:57:46;;;;;;;47.17;9.70;;;;;;;2.17;100.00;102306.81;10342223;28;20449;-90
2023/01/26 10:03:08;;;;;;;40.70;8.43;;;;;;;3.56;100.00;102479.56;10331720;28;20034;-90
2023/01/26 10:08:13;;;;;;;41.53;9.10;;;;;;;2.20;100.00;102249.41;10340278;28;20343;-90
2023/01/26 10:13:14;;;;;;;43.08;7.90;;;;;;;1.96;100.00;102178.72;10320814;28;20389;-90
2023/01/26 10:18:25;;;;;;;46.15;7.57;;;;;;;3.38;100.00;102393.44;10323224;28;20038;-89
2023/01/26 10:23:30;;;;;;;43.78;8.48;;;;;;;4.08;100.00;102476.50;10322652;28;20119;-90
2023/01/26 10:28:34;;;;;;;43.38;8.10;;;;;;;3.23;100.00;102299.88;10327242;28;20049;-90
2023/01/26 10:33:35;;;;;;;35.05;8.68;;;;;;;4.03;100.00;102391.66;10326757;28;20041;-90
2023/01/26 10:38:35;;;;;;;50.28;8.90;;;;;;;4.21;100.00;102405.94;10327344;28;20033;-90
2023/01/26 10:43:40;;;;;;;31.85;7.03;;;;;;;3.21;100.00;102212.94;10356422;28;20037;-91
2023/01/26 10:48:40;;;;;;;38.35;8.35;;;;;;;3.44;100.00;102218.50;10324203;28;20136;-90
2023/01/26 10:53:41;;;;;;;40.30;11.82;;;;;;;3.93;100.00;102303.84;10329020;28;20048;-90
2023/01/26 10:59:02;;;;;;;39.65;9.40;;;;;;;4.06;100.00;102249.59;10315590;28;20540;-92
2023/01/26 11:04:09;;;;;;;30.73;7.53;;;;;;;4.38;100.00;102254.06;10322445;28;20037;-93
2023/01/26 11:09:17;;;;;;;38.08;9.80;;;;;;;4.55;100.00;102284.78;10327390;28;20370;-91
2023/01/26 11:14:18;;;;;;;30.77;7.88;;;;;;;5.55;100.00;102397.69;10315057;28;20040;-92
2023/01/26 11:19:41;;;;;;;50.72;10.30;;;;;;;4.40;100.00;102182.94;10299914;28;20057;-91
2023/01/26 11:24:51;;;;;;;25.40;6.65;;;;;;;6.42;100.00;102438.22;10270503;28;20113;-90
2023/01/26 11:29:51;;;;;;;21.08;5.63;;;;;;;6.65;100.00;102432.66;10314625;28;20050;-91
2023/01/26 11:35:14;;;;;;;26.27;5.55;;;;;;;6.90;100.00;102430.44;10314749;28;20058;-86
2023/01/26 11:40:29;;;;;;;32.55;5.38;;;;;;;6.11;100.00;102283.38;10285305;28;20112;-89
2023/01/26 11:45:46;;;;;;;15.30;3.28;;;;;;;5.40;100.00;102157.31;10284002;28;20100;-88
2023/01/26 11:51:02;;;;;;;24.57;4.13;;;;;;;7.43;100.00;102392.69;10317523;28;20054;-88
2023/01/26 11:56:41;;;;;;;18.52;3.42;;;;;;;7.03;100.00;102326.56;10329660;28;20802;-88
2023/01/26 12:02:22;;;;;;;21.05;4.90;;;;;;;7.35;100.00;102381.84;10335165;28;20512;-89
2023/01/26 12:07:49;;;;;;;17.42;3.97;;;;;;;6.81;100.00;102305.69;10335239;28;20535;-88
2023/01/26 12:12:54;;;;;;;19.42;4.28;;;;;;;6.41;100.00;102206.75;10315780;28;20573;-91
2023/01/26 12:18:04;;;;;;;24.75;4.20;;;;;;;6.07;100.00;102151.66;10317057;28;20084;-88
2023/01/26 12:23:07;;;;;;;19.60;5.28;;;;;;;7.50;100.00;102359.00;10327762;28;20041;-88
2023/01/26 12:28:17;;;;;;;22.63;4.22;;;;;;;7.30;100.00;102372.50;10342769;28;20026;-87
2023/01/26 12:33:17;;;;;;;19.08;3.72;;;;;;;6.70;100.00;102218.59;10349913;28;20461;-89
2023/01/26 12:38:59;;;;;;;20.42;3.70;;;;;;;7.38;100.00;102240.88;10327534;28;20050;-89
2023/01/26 12:44:27;;;;;;;21.23;3.55;;;;;;;7.99;100.00;102341.66;10347147;28;20489;-89
2023/01/26 12:49:33;;;;;;;15.65;3.38;;;;;;;7.53;100.00;102269.03;10335954;28;20035;-86
2023/01/26 12:54:44;;;;;;;15.30;3.83;;;;;;;7.82;100.00;102226.81;10305136;28;20030;-86
2023/01/26 12:59:44;;;;;;;20.25;2.60;;;;;;;6.97;100.00;102146.63;10321274;28;20036;-87
2023/01/26 13:04:45;;;;;;;16.00;3.47;;;;;;;7.56;100.00;102254.91;10326236;28;20041;-86
2023/01/26 13:10:09;;;;;;;13.50;2.30;;;;;;;8.07;100.00;102311.34;10327065;28;20026;-87
2023/01/26 13:15:13;;;;;;;13.25;2.53;;;;;;;7.54;100.00;102344.69;10343126;28;20117;-87
2023/01/26 13:20:24;;;;;;;10.02;2.40;;;;;;;6.92;100.00;102230.38;10345373;28;20029;-88
2023/01/26 13:25:31;;;;;;;24.58;4.28;;;;;;;6.20;100.00;102145.50;10329817;28;20037;-88
2023/01/26 13:30:43;;;;;;;24.60;3.38;;;;;;;7.06;100.00;102243.16;10346065;28;20072;-87
2023/01/26 13:35:43;;;;;;;16.60;2.75;;;;;;;6.56;100.00;102232.16;10345170;28;20064;-88
2023/01/26 13:40:48;;;;;;;15.75;3.28;;;;;;;6.55;100.00;102233.22;10329471;28;20030;-88
2023/01/26 13:46:10;;;;;;;9.23;2.85;;;;;;;6.97;100.00;102321.84;10333778;28;20034;-88
2023/01/26 13:51:32;;;;;;;7.47;2.10;;;;;;;6.23;100.00;102198.97;10321205;28;20042;-90
2023/01/26 13:56:34;;;;;;;14.93;2.53;;;;;;;5.80;100.00;102138.69;10335870;28;20034;-90
2023/01/26 14:01:52;;;;;;;14.43;2.80;;;;;;;6.36;100.00;102242.88;10344647;28;20134;-88
2023/01/26 14:06:56;;;;;;;15.13;3.00;;;;;;;6.34;100.00;102276.94;10346204;28;20088;-89
2023/01/26 14:12:01;;;;;;;10.63;2.17;;;;;;;5.89;100.00;102216.84;10343332;28;20383;-90
2023/01/26 14:17:21;;;;;;;12.85;4.57;;;;;;;6.24;100.00;102289.03;10308896;28;20434;-89
2023/01/26 14:22:22;;;;;;;16.25;2.65;;;;;;;5.47;100.00;102188.28;10330238;28;20116;-89
2023/01/26 14:27:29;;;;;;;10.68;2.22;;;;;;;5.71;100.00;102217.22;10326978;28;20026;-89
2023/01/26 14:32:30;;;;;;;11.13;2.25;;;;;;;5.09;100.00;102135.66;10357700;28;20095;-88
2023/01/26 14:37:30;;;;;;;24.33;4.70;;;;;;;5.35;100.00;102228.84;10315876;28;20441;-89
2023/01/26 14:42:31;;;;;;;12.32;2.30;;;;;;;5.49;100.00;102232.66;10324419;28;20406;-87
2023/01/26 14:47:31;;;;;;;10.82;2.35;;;;;;;4.86;100.00;102120.19;10315935;28;20108;-88
2023/01/26 14:52:33;;;;;;;11.25;2.65;;;;;;;5.31;100.00;102204.84;10319267;28;20040;-88
2023/01/26 14:57:34;;;;;;;15.50;3.50;;;;;;;5.37;100.00;102215.88;10321348;28;20061;-87
2023/01/26 15:02:41;;;;;;;11.00;3.03;;;;;;;5.14;100.00;102176.88;10304158;28;20106;-88
2023/01/26 15:07:47;;;;;;;20.02;3.58;;;;;;;4.52;100.00;102077.88;10302971;28;20026;-88
2023/01/26 15:13:05;;;;;;;18.58;3.53;;;;;;;4.83;100.00;102109.63;10324714;28;20393;-88
2023/01/26 15:18:16;;;;;;;11.93;2.58;;;;;;;4.52;100.00;102052.47;10306908;28;20042;-88
2023/01/26 15:23:34;;;;;;;15.82;3.47;;;;;;;4.96;100.00;102180.81;10317921;28;20051;-88
2023/01/26 15:28:35;;;;;;;10.38;2.45;;;;;;;5.31;100.00;102271.22;10307623;28;20069;-87
2023/01/26 15:33:48;;;;;;;10.23;2.70;;;;;;;5.44;100.00;102320.63;10323667;28;20034;-87
2023/01/26 15:38:51;;;;;;;14.82;2.95;;;;;;;4.06;100.00;102156.94;10337419;28;20378;-89
2023/01/26 15:43:52;;;;;;;15.70;2.97;;;;;;;4.13;100.00;102206.13;10323875;28;20041;-88
2023/01/26 15:48:52;;;;;;;15.13;3.65;;;;;;;4.30;100.00;102292.28;10332934;28;20050;-89
2023/01/26 15:53:53;;;;;;;17.02;4.75;;;;;;;4.31;100.00;102295.84;10321614;28;20129;-88
2023/01/26 15:58:53;;;;;;;15.55;3.13;;;;;;;2.98;100.00;102136.63;10338230;28;20106;-88
2023/01/26 16:03:54;;;;;;;13.57;4.20;;;;;;;3.82;100.00;102265.03;10335956;28;20128;-88
2023/01/26 16:08:55;;;;;;;12.52;4.60;;;;;;;3.30;100.00;102253.75;10309507;28;20034;-87
2023/01/26 16:13:55;;;;;;;12.77;2.85;;;;;;;3.43;100.00;102282.16;10313764;28;20046;-88
2023/01/26 16:18:56;;;;;;;11.98;4.22;;;;;;;1.80;100.00;102066.31;10327727;28;20049;-88
2023/01/26 16:23:57;;;;;;;18.27;4.45;;;;;;;3.14;100.00;102317.19;10330170;28;20033;-88
2023/01/26 16:28:57;;;;;;;17.92;4.40;;;;;;;2.11;100.00;102160.75;10326499;28;20446;-88
2023/01/26 16:33:58;;;;;;;14.95;4.88;;;;;;;2.74;100.00;102303.41;10326525;28;20042;-88
2023/01/26 16:38:58;;;;;;;12.02;5.43;;;;;;;2.82;100.00;102297.13;10326004;28;20022;-88
2023/01/26 16:44:00;;;;;;;23.77;6.32;;;;;;;3.07;100.00;102335.25;10345985;28;20578;-87
2023/01/26 16:49:00;;;;;;;22.67;5.45;;;;;;;2.87;100.00;102253.09;10323133;28;20045;-88
2023/01/26 16:54:01;;;;;;;17.98;5.47;;;;;;;3.24;100.00;102301.56;10318638;28;20469;-87
2023/01/26 16:59:01;;;;;;;21.95;4.60;;;;;;;3.20;100.00;102282.03;10298957;28;20136;-88
2023/01/26 17:04:02;;;;;;;13.70;4.82;;;;;;;3.11;100.00;102279.47;10327901;28;20030;-87
2023/01/26 17:09:03;;;;;;;14.20;4.85;;;;;;;3.21;100.00;102250.19;10319654;28;20120;-87
2023/01/26 17:14:04;;;;;;;16.25;4.57;;;;;;;2.75;100.00;102222.66;10323183;28;20092;-87
2023/01/26 17:19:04;;;;;;;16.13;5.20;;;;;;;3.30;100.00;102333.53;10326224;28;20073;-87
2023/01/26 17:24:05;;;;;;;17.58;6.40;;;;;;;2.50;100.00;102209.06;10327580;28;20038;-89
2023/01/26 17:29:07;;;;;;;13.18;4.70;;;;;;;2.14;100.00;102176.72;10328492;28;20456;-88
2023/01/26 17:34:08;;;;;;;30.13;6.20;;;;;;;2.74;100.00;102314.28;10327880;28;20044;-88
2023/01/26 17:39:09;;;;;;;26.48;7.20;;;;;;;2.39;100.00;102240.13;10326997;28;20530;-88
2023/01/26 17:44:09;;;;;;;18.45;6.15;;;;;;;1.84;100.00;102207.19;10327810;28;20038;-87
2023/01/26 17:49:10;;;;;;;18.40;5.55;;;;;;;2.97;100.00;102401.53;10300123;28;20593;-87
2023/01/26 17:54:10;;;;;;;21.33;6.17;;;;;;;1.57;100.00;102195.53;10327912;28;20129;-87
2023/01/26 17:59:11;;;;;;;27.92;7.28;;;;;;;2.07;100.00;102316.09;10327664;28;20061;-87
2023/01/26 18:04:11;;;;;;;24.42;5.97;;;;;;;2.09;100.00;102309.50;10326976;28;20041;-87
2023/01/26 18:09:12;;;;;;;28.60;7.50;;;;;;;0.76;100.00;102142.50;10317855;28;20049;-87
2023/01/26 18:14:12;;;;;;;23.98;5.93;;;;;;;2.02;100.00;102313.88;10319372;28;20092;-88
2023/01/26 18:19:13;;;;;;;21.90;6.03;;;;;;;1.75;100.00;102269.59;10325950;28;20045;-87
2023/01/26 18:24:13;;;;;;;21.88;7.00;;;;;;;2.80;100.00;102432.44;10326313;28;20026;-88
2023/01/26 18:29:15;;;;;;;33.13;6.78;;;;;;;1.91;100.00;102306.00;10325482;28;20026;-87
2023/01/26 18:34:15;;;;;;;21.38;7.57;;;;;;;1.90;100.00;102321.47;10326310;28;20061;-87
2023/01/26 18:39:16;;;;;;;31.23;7.40;;;;;;;1.89;100.00;102302.59;10326157;28;20022;-87
2023/01/26 18:44:17;;;;;;;22.53;7.50;;;;;;;1.76;100.00;102336.47;10325913;28;20034;-87
2023/01/26 18:49:17;;;;;;;31.67;6.07;;;;;;;1.99;100.00;102349.53;10325220;28;20045;-86
2023/01/26 18:54:18;;;;;;;20.95;5.95;;;;;;;1.36;100.00;102256.47;10318230;28;20137;-86
2023/01/26 18:59:19;;;;;;;23.40;6.50;;;;;;;1.56;100.00;102329.56;10303495;28;20122;-86
2023/01/26 19:04:19;;;;;;;30.25;6.85;;;;;;;1.86;100.00;102395.25;10308152;28;20062;-87
2023/01/26 19:09:20;;;;;;;23.63;6.53;;;;;;;1.45;100.00;102356.94;10304198;28;20407;-87
2023/01/26 19:14:21;;;;;;;19.73;6.57;;;;;;;0.82;100.00;102263.88;10319573;28;20097;-87
2023/01/26 19:19:22;;;;;;;19.37;5.90;;;;;;;1.50;100.00;102407.03;10292281;28;20049;-87
2023/01/26 19:24:22;;;;;;;21.00;6.80;;;;;;;0.35;100.00;102275.78;10306916;28;20040;-87
2023/01/26 19:29:23;;;;;;;19.20;6.80;;;;;;;0.68;100.00;102310.47;10337508;28;20030;-87
2023/01/26 19:34:23;;;;;;;23.07;8.10;;;;;;;0.62;100.00;102271.31;10325236;28;20129;-87
2023/01/26 19:39:24;;;;;;;19.70;7.13;;;;;;;1.26;100.00;102401.38;10324429;28;20313;-88
2023/01/26 19:44:24;;;;;;;27.57;7.07;;;;;;;0.06;100.00;102201.97;10339251;28;20080;-87
2023/01/26 19:49:25;;;;;;;15.77;6.18;;;;;;;0.37;100.00;102262.06;10342282;28;20037;-88
2023/01/26 19:54:26;;;;;;;27.50;7.17;;;;;;;0.69;100.00;102323.06;10331744;28;20121;-87
2023/01/26 19:59:26;;;;;;;14.82;6.72;;;;;;;0.45;100.00;102329.88;10332093;28;20428;-88
2023/01/26 20:04:27;;;;;;;17.42;6.57;;;;;;;0.90;100.00;102380.53;10348144;28;20026;-88
2023/01/26 20:09:31;;;;;;;27.58;7.90;;;;;;;0.42;100.00;102302.28;10331976;28;20501;-87
2023/01/26 20:14:38;;;;;;;24.00;7.40;;;;;;;0.69;100.00;102325.75;10323577;28;20042;-88
2023/01/26 20:19:41;;;;;;;21.55;6.82;;;;;;;0.63;100.00;102310.09;10312487;28;20038;-89
2023/01/26 20:24:42;;;;;;;34.07;7.90;;;;;;;0.40;100.00;102289.72;10329146;28;20039;-88
2023/01/26 20:29:42;;;;;;;31.63;8.27;;;;;;;0.54;100.00;102323.56;10318960;28;20081;-88
2023/01/26 20:34:43;;;;;;;23.30;7.13;;;;;;;0.79;100.00;102380.75;10329930;28;20125;-88
2023/01/26 20:39:44;;;;;;;22.13;6.95;;;;;;;1.50;100.00;102420.59;10338517;28;20340;-87
2023/01/26 20:44:44;;;;;;;28.88;6.97;;;;;;;1.33;100.00;102419.63;10321279;28;20042;-88
2023/01/26 20:49:45;;;;;;;27.60;7.78;;;;;;;1.29;100.00;102420.94;10331192;28;20135;-87
2023/01/26 20:54:46;;;;;;;33.10;8.93;;;;;;;0.37;100.00;102251.22;10324369;28;20034;-87
2023/01/26 20:59:46;;;;;;;26.05;7.90;;;;;;;1.91;100.00;102539.59;10316586;28;20539;-87
2023/01/26 21:04:47;;;;;;;29.10;8.85;;;;;;;0.68;100.00;102315.91;10318239;28;20026;-89
2023/01/26 21:09:47;;;;;;;29.87;10.40;;;;;;;0.94;100.00;102345.84;10338707;28;20022;-88
2023/01/26 21:14:48;;;;;;;29.60;11.70;;;;;;;0.82;100.00;102326.22;10344528;28;20089;-87
2023/01/26 21:19:49;;;;;;;27.93;10.13;;;;;;;1.39;100.00;102439.84;10345443;28;20134;-88
2023/01/26 21:24:50;;;;;;;26.10;10.17;;;;;;;0.87;100.00;102329.34;10326245;28;20128;-88
2023/01/26 21:29:51;;;;;;;29.70;10.50;;;;;;;0.92;100.00;102332.41;10343243;28;20033;-87
2023/01/26 21:34:51;;;;;;;32.22;10.70;;;;;;;1.61;100.00;102449.38;10327868;28;20048;-87
2023/01/26 21:39:52;;;;;;;27.88;10.85;;;;;;;1.29;100.00;102368.53;10328286;28;20026;-87
2023/01/26 21:50:11;;;;;;;29.90;12.73;;;;;;;1.77;100.00;102449.50;10334987;28;20028;-87
2023/01/26 21:55:12;;;;;;;22.50;11.23;;;;;;;1.96;100.00;102456.63;10343762;28;20037;-87
2023/01/26 22:00:12;;;;;;;34.00;12.85;;;;;;;1.67;100.00;102413.44;10327998;28;20096;-88
2023/01/26 22:05:14;;;;;;;26.70;14.02;;;;;;;1.18;100.00;102312.66;10325771;28;20079;-88
2023/01/26 22:10:16;;;;;;;28.67;14.80;;;;;;;1.89;100.00;102471.00;10343201;28;20489;-87
2023/01/26 22:15:17;;;;;;;34.30;18.23;;;;;;;1.34;100.00;102356.19;10341675;28;20042;-88
2023/01/26 22:20:17;;;;;;;31.83;16.40;;;;;;;2.68;100.00;102580.59;10339597;28;20046;-88
2023/01/26 22:25:19;;;;;;;27.27;16.03;;;;;;;2.08;100.00;102503.38;10339378;28;20046;-89
2023/01/26 22:30:19;;;;;;;32.97;16.75;;;;;;;2.32;100.00;102524.47;10329671;28;20045;-87
2023/01/26 22:35:20;;;;;;;28.13;16.75;;;;;;;2.07;100.00;102470.94;10330677;28;20073;-87
2023/01/26 22:40:21;;;;;;;28.10;17.27;;;;;;;1.41;100.00;102357.28;10312748;28;20030;-87
2023/01/26 22:45:21;;;;;;;31.00;18.30;;;;;;;1.67;100.00;102361.84;10321522;28;20088;-86
2023/01/26 22:50:21;;;;;;;23.77;16.60;;;;;;;1.52;100.00;102374.31;10326498;28;20116;-87
2023/01/26 22:55:22;;;;;;;27.23;17.23;;;;;;;2.91;100.00;102580.91;10343334;28;20065;-87
2023/01/26 23:00:22;;;;;;;22.73;15.05;;;;;;;2.55;100.00;102523.94;10326268;28;20025;-87
2023/01/26 23:05:23;;;;;;;22.35;15.00;;;;;;;2.22;100.00;102485.66;10322512;28;20065;-87
2023/01/26 23:10:23;;;;;;;26.55;15.98;;;;;;;1.92;100.00;102416.34;10323873;28;20042;-87
2023/01/26 23:15:24;;;;;;;20.15;14.00;;;;;;;2.56;100.00;102518.34;10324574;28;20241;-86
2023/01/26 23:20:25;;;;;;;22.60;14.40;;;;;;;3.01;100.00;102585.19;10313653;28;20565;-87
2023/01/26 23:30:44;;;;;;;16.77;13.45;;;;;;;1.53;100.00;102355.16;10343681;28;20518;-87
2023/01/26 23:35:45;;;;;;;19.75;12.65;;;;;;;3.06;100.00;102579.28;10311865;28;20045;-87
2023/01/26 23:40:46;;;;;;;15.05;11.40;;;;;;;1.92;100.00;102400.91;10327400;28;20026;-87
2023/01/26 23:45:48;;;;;;;12.63;9.18;;;;;;;2.10;100.00;102457.91;10342310;28;20034;-87
2023/01/26 23:50:53;;;;;;;11.80;9.15;;;;;;;1.60;100.00;102409.66;10322612;28;20042;-88